Joseph Murphy

Recruteur - Everton
4 Déc 2028
Lundi
Processus

Personnalité

Adaptabilité (1) Ambition (6) Controverse (11) Loyauté (19) Pression (11) Professionnalisme (9) Sportivité (1) Tempérament (8)

Profil

Style d'entraînement Démocratique
Diplôme National B
Détermination 8
Gestion des joueurs 15
Motivation 9
Discipline 13
Satisfaction professionnelle
100%
Fatigue
0%
Rôle Recruteur
Salaire 56.7K p/s
Contrat 14.03.2030

Performance

Comportement Bon
Efficacité de l'entraînement
64%
Développement des joueurs
50%
Prévention des blessures
25%
Mise en place tactique
75%

Événements récents

A participé à une réunion de recrutement maintenant
A participé à une réunion de recrutement maintenant
A recommandé une cible de transfert maintenant
A recommandé une cible de transfert maintenant
A recommandé une cible de transfert maintenant
A recommandé une cible de transfert maintenant
A évalué un joueur maintenant
A évalué un joueur maintenant

Suivi en cours

133
Joueur Club Statut Capacité Confiance Observé Dernière observation Dernier vote
Giovanni Leoni Lincoln City Actif 150 / 153 40% 9 03.12.2028 -
Salvador Blopá Wolverhampton Actif 131 / 131 40% 3 03.12.2028 -
Josh King Newcastle United Actif 149 / 154 40% 9 03.12.2028 -
Christos Mouzakitis Hull City Actif 139 / 150 40% 6 02.12.2028 -
Veljko Milosavljević Bournemouth Actif 149 / 154 40% 7 02.12.2028 -
Trey Nyoni Rotherham United Actif 152 / 152 40% 8 01.12.2028 -
Cheveyo Tsawa Club Brugge Actif 132 / 136 40% 4 01.12.2028 -
Diego León Rotherham United Actif 133 / 133 40% 6 29.11.2028 -
Harry Amass Manchester United Actif 148 / 153 40% 8 29.11.2028 -
Noah Markmann Esbjerg Actif 128 / 127 40% 4 29.11.2028 -
Honest Ahanor Atalanta Actif 147 / 149 40% 13 27.11.2028 -
Riquelme Thompson-Jones Accrington Stanley Actif 115 / 121 40% 6 27.11.2028 -
Harrison Armstrong Ipswich Town Actif 140 / 142 40% 5 26.11.2028 -
José Neto Benfica Actif 128 / 129 40% 3 26.11.2028 -
Celías Ingenthron Platense Actif 109 / 128 40% 11 25.11.2028 -
Kiani Inge Groningen Actif 111 / 122 40% 3 25.11.2028 -
Andrija Bulatović Chamois Niortais Actif 134 / 138 40% 6 24.11.2028 -
Abubacarr Sedi Kinteh Al-Ahli Actif 146 / 143 40% 7 23.11.2028 -
Ronan Kpakio AC Milan Actif 135 / 135 40% 9 22.11.2028 -
Bernardo Lima Porto Actif 124 / 126 40% 3 22.11.2028 -
Aidan Borland Espanyol Actif 113 / 123 40% 3 20.11.2028 -
Daniel Banjaqui Benfica Actif 126 / 134 40% 7 17.11.2028 -
Jan Bürger Northampton Town Actif 121 / 126 40% 9 15.11.2028 -
Luka Vušković Tottenham Actif 150 / 155 40% 6 15.11.2028 -
Miguel Figueiredo Benfica Actif 132 / 133 40% 2 15.11.2028 -
Martim Cunha Porto Actif 107 / 117 40% 1 14.11.2028 -
Malte Heyde Esbjerg Actif 124 / 121 40% 1 12.11.2028 -
Louis Page Leicester City Actif 134 / 140 40% 3 08.11.2028 -
Ayyoub Bouaddi Stoke City Actif 152 / 160 40% 6 06.11.2028 -
Alejandro Almaraz NK Celje Actif 115 / 125 40% 5 04.11.2028 -
Tyler Fletcher Rotherham United Actif 114 / 125 40% 6 01.11.2028 -
Aarón Martín Al-Qadisiyah Actif 113 / 123 40% 4 30.10.2028 -
Andrey Ivlev Nizhniy Novgorod Actif 117 / 122 40% 6 28.10.2028 -
Germán Barbas Racing Santander Actif 123 / 126 40% 3 27.10.2028 -
Tobías Ramírez River Plate Actif 132 / 129 40% 4 23.10.2028 -
Davinchi Getafe Actif 124 / 132 40% 1 18.10.2028 -
Tobías Andrada River Plate Actif 113 / 125 40% 3 12.10.2028 -
Santiago Espíndola River Plate Actif 113 / 122 40% 2 04.10.2028 -
Chris Rigg West Ham United Actif 141 / 148 40% 4 03.10.2028 -
Jofre Torrents Ajax Actif 140 / 139 40% 1 01.10.2028 -
Axel Tape Bayer Leverkusen Actif 139 / 142 40% 3 29.09.2028 -
Ezra Mayers West Ham United Actif 129 / 136 40% 2 25.09.2028 -
Agustín Medina Lanús Actif 106 / 128 40% 1 25.09.2028 -
Triston Rowe Derby County Actif 119 / 126 40% 1 22.09.2028 -
Moses Sesay Southampton Actif 119 / 123 40% 1 21.09.2028 -
Bade Aluko Leicester City Actif 128 / 132 40% 3 20.09.2028 -
Joe Bryan Bromley Perdu 109 / 117 69% 1 14.08.2028 -
Sindre Walle Egeli Udinese Perdu 138 / 141 40% 2 10.07.2028 -
Dwight McNeil Crystal Palace Actif 157 / 144 40% 1 10.07.2028 -
Diego Mascardi Juventus Actif 147 / 146 40% 1 01.06.2028 -
Christian Pulisic AC Milan Actif 163 / 163 40% 1 31.05.2028 -
Tyrese Campbell Sheffield United Actif 132 / 131 40% 1 31.05.2028 -
Josh Nichols Oldham Athletic Actif 124 / 126 40% 1 27.05.2028 -
Augusto Bando Ascoli Actif 113 / 115 40% 2 23.05.2028 -
Ayden Heaven Portsmouth Actif 145 / 148 40% 2 16.05.2028 -
Jorthy Mokio ADO Den Haag Actif 139 / 139 40% 1 14.05.2028 -
Antonín Kinský Tottenham Actif 143 / 155 40% 1 31.12.2027 -
Melker Ellborg Sunderland Actif 135 / 133 40% 1 31.12.2027 -
Mohamed-Ali Cho Hull City Actif 128 / 139 65% 1 01.06.2027 Approuver
Radek Vítek Middlesbrough Actif 135 / 137 40% 11 31.05.2027 -
Lukáš Horníček Burnley Actif 146 / 153 40% 1 31.05.2027 -
Oscar Schwartau Norwich City Actif 123 / 122 40% 4 29.05.2027 -
Bazoumana Touré Newcastle United Actif 132 / 139 40% 2 29.05.2027 -
Caleb Yirenkyi Coventry City Actif 146 / 143 40% 2 28.05.2027 -
Ryan Oné Sheffield United Actif 116 / 124 40% 2 28.05.2027 -
Ethan Williams Peterborough United Actif 112 / 119 40% 4 25.05.2027 -
Leo Castledine Middlesbrough Actif 123 / 127 40% 1 25.05.2027 -
Sascha Britschgi AC Milan Actif 125 / 132 40% 1 21.05.2027 -
Marvin Keller Chelsea Actif 153 / 140 75% 10 20.05.2027 Fortement pour
James Trafford Leeds United Actif 149 / 142 75% 9 18.05.2027 Fortement pour
Zion Suzuki Aston Villa Actif 150 / 144 40% 8 18.05.2027 -
Mohamadou Kanté Crawley Town Actif 118 / 120 40% 3 16.05.2027 -
Senne Lammens Manchester United Actif 153 / 151 40% 7 15.05.2027 -
Nestory Irankunda Watford Actif 113 / 131 40% 4 14.05.2027 -
Romelle Donovan Brentford Actif 131 / 125 40% 2 12.05.2027 -
Alphadjo Cissé Lecce Actif 120 / 128 40% 1 09.05.2027 -
Kirill Glebov CSKA Moscow Actif 121 / 131 40% 3 04.05.2027 -
Tiago Freitas Benfica Actif 106 / 114 40% 1 01.05.2027 -
Mateus Mané Burnley Actif 131 / 138 40% 3 25.04.2027 -
Robin Roefs Sunderland Actif 151 / 151 67% 12 24.04.2027 Approuver
Mathys Tel Tottenham Actif 144 / 149 40% 3 16.04.2027 -
Chemsdine Talbi Sunderland Actif 143 / 149 40% 3 16.04.2027 -
Oliver Dovin Coventry City Actif 122 / 133 40% 3 16.04.2027 -
Eduardo Fernandes Benfica Actif 99 / 110 40% 1 09.04.2027 -
Kobbie Mainoo Manchester United Actif 146 / 156 40% 1 03.04.2027 -
Othmane Maamma Watford Actif 120 / 132 40% 1 26.03.2027 -
Malick Fofana Sunderland Actif 149 / 151 40% 1 23.03.2027 -
Antoni Milambo Brentford Actif 138 / 141 40% 2 21.03.2027 -
Cemran Dansin Orlando Pirates Actif 107 / 109 40% 1 21.03.2027 -
Rocco Vata Watford Actif 113 / 128 40% 1 18.03.2027 -
Josh Keeley Luton Town Actif 117 / 121 40% 1 30.12.2026 -
Fran Vieites Walsall Actif 110 / 120 40% 1 30.12.2026 -
Matheus Cunha Manchester United Actif 153 / 156 40% 2 29.12.2026 -
Mats Wieffer Brighton Actif 147 / 144 40% 5 28.12.2026 -
Xaver Schlager Nottingham Forest Actif 161 / 149 40% 3 28.12.2026 -
João Pedro Chelsea Actif 159 / 147 40% 2 25.12.2026 -
Emanuel Emegha Chelsea Actif 130 / 141 40% 1 23.12.2026 -
Pedro Porro Tottenham Actif 142 / 144 40% 2 22.12.2026 -
William Saliba Arsenal Actif 168 / 180 40% 2 20.12.2026 -
Anthony Patterson Wrexham Actif 129 / 123 40% 1 19.12.2026 -
Manu Koné AS Roma Actif 163 / 160 40% 1 17.12.2026 -
Jérémy Doku Manchester City Actif 157 / 160 40% 4 16.12.2026 Observer
Yeangel Montero Naxxar Lions Actif 110 / 99 40% 1 14.12.2026 -
Talles Magno New York City Actif 116 / 123 40% 3 12.12.2026 -
Antoine Semenyo Manchester City Actif 161 / 155 40% 2 11.12.2026 -
Thiago Brentford Actif 142 / 143 40% 1 10.12.2026 -
Eddie Nketiah Crystal Palace Actif 148 / 137 40% 1 06.12.2026 -
Noussair Mazraoui Manchester United Actif 155 / 147 40% 2 27.11.2026 -
Gabriel Martinelli Arsenal Actif 161 / 157 40% 2 26.11.2026 Plus d'infos
Jesus Ferreira Seattle Sounders Actif 121 / 133 40% 3 21.11.2026 -
Jurriën Timber Arsenal Actif 153 / 158 40% 2 19.11.2026 -
Youri Tielemans Manchester United Actif 158 / 157 40% 1 19.11.2026 -
Marc Guéhi Manchester City Actif 174 / 172 40% 2 18.11.2026 -
Gabriel Arsenal Actif 179 / 169 40% 1 17.11.2026 -
Moisés Caicedo Chelsea Actif 163 / 165 40% 1 15.11.2026 -
Nicolas Jackson Aston Villa Actif 156 / 146 40% 2 14.11.2026 -
Benjamin White Arsenal Actif 163 / 152 40% 2 13.11.2026 -
Sandro Tonali Tottenham Actif 175 / 167 40% 1 13.11.2026 -
Mads Hermansen West Ham United Actif 127 / 131 40% 2 09.11.2026 -
Cheikh Sabaly Vancouver Whitecaps Actif 136 / 118 40% 1 09.11.2026 -
Rúben Dias Manchester City Actif 169 / 171 40% 1 07.11.2026 -
Levi Colwill Chelsea Actif 155 / 162 40% 2 06.11.2026 -
Joseph Leclercq Tottenham Actif 145 / 150 40% 2 31.10.2026 -
Roman Celentano FC Cincinnati Actif 110 / 121 40% 2 31.10.2026 -
Óscar Mingueza Crystal Palace Actif 144 / 154 40% 1 27.10.2026 -
Patrick Schulte Columbus Crew Actif 109 / 128 40% 1 24.10.2026 -
Josh Sargent Toronto FC Actif 132 / 129 40% 1 17.10.2026 -
Tino Livramento Newcastle United Actif 155 / 158 40% 1 15.10.2026 -
Quinten Timber Crystal Palace Actif 159 / 147 40% 1 15.10.2026 -
Enzo Fernández Manchester City Actif 162 / 169 40% 1 14.10.2026 -
Grégoire Coudert Burnley Actif 124 / 123 40% 1 10.10.2026 -
Agustín Anello Philadelphia Union Actif 110 / 119 40% 1 09.10.2026 -
Dejan Joveljić Seattle Sounders Actif 129 / 127 40% 1 09.10.2026 -